Time;durP1;ratioP1;P1;durP2;ratioP2;P2;SDS_P1;SDS_P2;PMS_P1;PMS_P2;Temp;Humidity;BMP_temperature;BMP_pressure;BME280_temperature;BME280_humidity;BME280_pressure;Samples;Min_cycle;Max_cycle;Signal;HPM_P1;HPM_P2
2022/07/22 00:01:08;;;;;;;30.30;28.30;;;20.90;78.80;;;;;;4967221;28;20570;-68
2022/07/22 00:03:35;;;;;;;31.10;29.30;;;20.80;79.00;;;;;;4967133;28;20546;-68
2022/07/22 00:06:03;;;;;;;31.83;29.50;;;20.70;79.20;;;;;;4970483;28;20568;-70
2022/07/22 00:08:31;;;;;;;29.80;28.00;;;20.70;79.40;;;;;;4967236;28;20482;-70
2022/07/22 00:10:58;;;;;;;30.50;28.50;;;20.70;79.30;;;;;;4968708;28;20473;-71
2022/07/22 00:13:25;;;;;;;30.73;28.80;;;20.60;79.60;;;;;;4968982;28;20552;-70
2022/07/22 00:15:52;;;;;;;31.27;29.37;;;20.50;80.00;;;;;;4964776;28;21012;-70
2022/07/22 00:18:19;;;;;;;31.47;29.67;;;20.50;79.90;;;;;;4965740;28;21043;-70
2022/07/22 00:20:46;;;;;;;30.60;28.73;;;20.50;79.90;;;;;;4969790;28;20555;-70
2022/07/22 00:23:13;;;;;;;31.13;29.03;;;20.50;80.10;;;;;;4967356;28;20463;-70
2022/07/22 00:25:41;;;;;;;31.73;29.73;;;20.50;79.90;;;;;;4969369;28;21005;-70
2022/07/22 00:28:08;;;;;;;30.43;28.67;;;20.50;79.90;;;;;;4968464;28;21040;-68
2022/07/22 00:30:35;;;;;;;31.30;29.30;;;20.60;79.70;;;;;;4965944;28;20571;-67
2022/07/22 00:33:03;;;;;;;30.67;28.77;;;20.60;79.70;;;;;;4962682;28;20457;-70
2022/07/22 00:35:30;;;;;;;31.07;29.17;;;20.60;79.70;;;;;;4964061;28;20481;-69
2022/07/22 00:37:57;;;;;;;31.70;29.70;;;20.50;79.90;;;;;;4962875;28;20581;-70
2022/07/22 00:40:24;;;;;;;30.80;28.70;;;20.50;80.00;;;;;;4967918;28;20991;-70
2022/07/22 00:42:52;;;;;;;29.93;27.83;;;20.40;80.40;;;;;;4964329;28;20544;-68
2022/07/22 00:45:20;;;;;;;30.37;28.37;;;20.40;80.50;;;;;;4969960;28;20496;-68
2022/07/22 00:47:46;;;;;;;30.67;28.77;;;20.30;80.70;;;;;;4967609;28;21073;-68
2022/07/22 00:50:14;;;;;;;31.47;29.47;;;20.40;80.70;;;;;;4968926;28;20562;-68
2022/07/22 00:52:42;;;;;;;31.60;29.60;;;20.40;80.50;;;;;;4964901;28;20464;-68
2022/07/22 00:55:10;;;;;;;29.90;28.20;;;20.30;80.80;;;;;;4970171;28;20611;-68
2022/07/22 00:57:37;;;;;;;30.00;28.17;;;20.30;80.90;;;;;;4968516;28;21059;-67
2022/07/22 01:00:08;;;;;;;30.17;28.27;;;20.30;80.80;;;;;;4967629;28;20506;-68
2022/07/22 01:02:35;;;;;;;31.07;29.07;;;20.20;81.10;;;;;;4967135;28;20471;-68
2022/07/22 01:05:03;;;;;;;29.67;27.97;;;20.20;81.20;;;;;;4969332;28;20543;-68
2022/07/22 01:07:30;;;;;;;30.60;28.80;;;20.10;81.30;;;;;;4961207;28;20553;-68
2022/07/22 01:09:57;;;;;;;31.00;28.90;;;20.10;81.50;;;;;;4964049;28;20579;-68
2022/07/22 01:12:24;;;;;;;30.03;28.13;;;19.90;81.80;;;;;;4967584;28;20492;-68
2022/07/22 01:14:51;;;;;;;30.30;28.50;;;19.90;82.10;;;;;;4970750;28;20587;-68
2022/07/22 01:17:19;;;;;;;30.23;28.53;;;19.90;82.30;;;;;;4969623;28;20546;-68
2022/07/22 01:19:46;;;;;;;30.60;28.53;;;19.90;82.30;;;;;;4971916;28;20649;-68
2022/07/22 01:22:15;;;;;;;30.67;28.77;;;19.90;82.40;;;;;;4968288;28;20570;-68
2022/07/22 01:24:42;;;;;;;29.27;27.50;;;19.80;82.50;;;;;;4969831;28;20548;-68
2022/07/22 01:27:09;;;;;;;30.80;28.70;;;19.90;82.40;;;;;;4960026;28;20545;-68
2022/07/22 01:29:36;;;;;;;29.67;27.87;;;19.80;82.30;;;;;;4965441;28;20487;-68
2022/07/22 01:32:03;;;;;;;30.50;28.50;;;19.70;82.80;;;;;;4966851;28;21060;-68
2022/07/22 01:34:30;;;;;;;30.70;28.70;;;19.70;82.60;;;;;;4970830;28;20574;-68
2022/07/22 01:36:56;;;;;;;31.00;29.10;;;19.70;82.50;;;;;;4965558;28;20550;-68
2022/07/22 01:39:25;;;;;;;30.47;28.70;;;19.70;82.80;;;;;;4966926;28;20558;-68
2022/07/22 01:41:52;;;;;;;29.90;28.10;;;19.70;82.60;;;;;;4966350;28;20910;-68
2022/07/22 01:44:19;;;;;;;31.20;29.20;;;19.70;82.40;;;;;;4967964;28;20505;-68
2022/07/22 01:46:46;;;;;;;30.87;28.87;;;19.70;82.50;;;;;;4967287;28;20466;-67
2022/07/22 01:49:13;;;;;;;31.37;29.20;;;19.70;82.60;;;;;;4964495;28;20571;-68
2022/07/22 01:51:41;;;;;;;30.30;28.50;;;19.70;82.70;;;;;;4967626;28;20518;-68
2022/07/22 01:54:08;;;;;;;30.40;28.57;;;19.60;82.70;;;;;;4959653;28;20628;-68
2022/07/22 01:56:36;;;;;;;31.07;28.97;;;19.60;82.90;;;;;;4968222;28;20562;-68
2022/07/22 01:59:04;;;;;;;31.73;29.70;;;19.60;82.90;;;;;;4970021;28;20485;-68
2022/07/22 02:01:31;;;;;;;31.50;29.60;;;19.50;83.10;;;;;;4964574;28;20465;-68
2022/07/22 02:03:57;;;;;;;30.30;28.50;;;19.60;83.20;;;;;;4968992;28;20961;-68
2022/07/22 02:06:24;;;;;;;31.20;29.40;;;19.50;83.10;;;;;;4967559;28;20550;-67
2022/07/22 02:08:51;;;;;;;31.03;29.13;;;19.50;83.20;;;;;;4968484;28;20560;-67
2022/07/22 02:11:18;;;;;;;30.17;28.40;;;19.50;83.30;;;;;;4964599;28;20916;-67
2022/07/22 02:13:47;;;;;;;30.13;28.20;;;19.50;83.30;;;;;;4966013;28;21044;-70
2022/07/22 02:16:14;;;;;;;30.83;29.13;;;19.60;83.00;;;;;;4966332;28;20773;-70
2022/07/22 02:18:40;;;;;;;29.70;27.90;;;19.60;82.90;;;;;;4968208;28;20505;-70
2022/07/22 02:21:07;;;;;;;31.30;29.50;;;19.60;82.40;;;;;;4966518;28;20547;-70
2022/07/22 02:23:34;;;;;;;30.30;28.47;;;19.60;82.60;;;;;;4966710;28;20514;-70
2022/07/22 02:26:02;;;;;;;31.10;29.10;;;19.50;82.80;;;;;;4965928;28;20540;-70
2022/07/22 02:28:28;;;;;;;31.10;29.10;;;19.40;83.10;;;;;;4967022;28;20479;-70
2022/07/22 02:30:57;;;;;;;31.83;29.73;;;19.40;83.20;;;;;;4967251;28;20460;-70
2022/07/22 02:33:25;;;;;;;30.57;28.77;;;19.30;83.50;;;;;;4964817;28;21016;-70
2022/07/22 02:35:52;;;;;;;31.03;29.23;;;19.30;83.50;;;;;;4963934;28;20511;-70
2022/07/22 02:38:18;;;;;;;31.10;29.30;;;19.30;83.40;;;;;;4964965;28;21065;-70
2022/07/22 02:40:45;;;;;;;31.73;29.93;;;19.30;83.50;;;;;;4970831;28;20555;-69
2022/07/22 02:43:12;;;;;;;29.90;27.93;;;19.30;83.60;;;;;;4965230;28;20468;-68
2022/07/22 02:45:39;;;;;;;29.87;28.03;;;19.20;83.80;;;;;;4967329;28;20547;-68
2022/07/22 02:48:08;;;;;;;32.53;30.53;;;19.20;83.70;;;;;;4965723;28;20475;-68
2022/07/22 02:50:36;;;;;;;33.40;31.37;;;19.20;83.80;;;;;;4966214;28;20819;-68
2022/07/22 02:53:03;;;;;;;31.50;29.60;;;19.20;83.70;;;;;;4963958;28;20823;-68
2022/07/22 02:55:30;;;;;;;31.40;29.50;;;19.10;84.00;;;;;;4968377;28;20578;-68
2022/07/22 02:57:57;;;;;;;30.67;28.57;;;19.10;84.30;;;;;;4965237;28;20941;-68
2022/07/22 03:00:24;;;;;;;29.70;27.90;;;19.10;84.20;;;;;;4963400;28;20471;-68
2022/07/22 03:02:51;;;;;;;31.30;29.30;;;19.10;84.30;;;;;;4965314;28;20526;-68
2022/07/22 03:05:19;;;;;;;31.57;29.67;;;19.10;84.20;;;;;;4967269;28;20791;-68
2022/07/22 03:07:48;;;;;;;32.70;30.70;;;19.10;84.10;;;;;;4968810;28;20542;-68
2022/07/22 03:10:15;;;;;;;31.73;29.73;;;19.10;84.40;;;;;;4972461;28;20497;-68
2022/07/22 03:12:42;;;;;;;33.40;31.17;;;19.00;84.70;;;;;;4974257;28;20556;-68
2022/07/22 03:15:09;;;;;;;32.47;30.30;;;19.00;84.70;;;;;;4972491;28;20573;-68
2022/07/22 03:17:36;;;;;;;32.07;30.17;;;19.00;84.80;;;;;;4966381;28;20492;-70
2022/07/22 03:20:04;;;;;;;31.67;29.63;;;19.00;84.50;;;;;;4971928;28;20537;-70
2022/07/22 03:22:33;;;;;;;31.90;29.80;;;19.00;84.60;;;;;;4971422;28;20462;-70
2022/07/22 03:25:00;;;;;;;35.87;33.77;;;19.00;84.60;;;;;;4974060;28;20463;-70
2022/07/22 03:27:27;;;;;;;32.93;30.97;;;19.00;84.60;;;;;;4966484;28;20913;-72
2022/07/22 03:29:54;;;;;;;32.60;30.70;;;18.90;85.00;;;;;;4970378;28;20478;-71
2022/07/22 03:32:21;;;;;;;33.73;31.60;;;18.90;85.10;;;;;;4970636;28;20554;-69
2022/07/22 03:34:48;;;;;;;35.63;33.63;;;18.90;85.10;;;;;;4973740;28;20459;-69
2022/07/22 03:37:15;;;;;;;32.10;29.97;;;18.90;85.30;;;;;;4966960;28;20640;-71
2022/07/22 03:39:43;;;;;;;35.97;33.83;;;19.00;85.20;;;;;;4971520;28;20547;-69
2022/07/22 03:42:10;;;;;;;33.40;31.37;;;19.00;84.80;;;;;;4967727;28;20483;-69
2022/07/22 03:44:37;;;;;;;33.60;31.30;;;19.00;84.80;;;;;;4968632;28;20549;-70
2022/07/22 03:47:04;;;;;;;32.93;30.93;;;19.00;84.60;;;;;;4968570;28;20521;-69
2022/07/22 03:49:31;;;;;;;37.40;35.03;;;19.00;84.60;;;;;;4970181;28;20570;-69
2022/07/22 03:51:58;;;;;;;34.80;32.60;;;19.10;84.30;;;;;;4970368;28;20511;-69
2022/07/22 03:54:25;;;;;;;34.47;32.07;;;19.10;84.30;;;;;;4970756;28;20602;-69
2022/07/22 03:56:54;;;;;;;33.60;31.50;;;19.00;84.40;;;;;;4968883;28;20487;-68
2022/07/22 03:59:20;;;;;;;33.53;31.40;;;19.10;84.40;;;;;;4975082;28;20493;-68
2022/07/22 04:01:47;;;;;;;34.90;32.60;;;19.10;84.50;;;;;;4973338;28;20542;-68
2022/07/22 04:04:14;;;;;;;33.50;31.43;;;19.00;84.60;;;;;;4963813;28;20845;-68
2022/07/22 04:06:41;;;;;;;35.03;32.70;;;19.00;84.50;;;;;;4969404;28;20538;-68
2022/07/22 04:09:08;;;;;;;33.63;31.53;;;19.00;84.50;;;;;;4975034;28;20651;-68
2022/07/22 04:11:35;;;;;;;37.23;34.73;;;19.10;84.30;;;;;;4966391;28;21549;-68
2022/07/22 04:14:03;;;;;;;35.30;33.23;;;19.00;84.50;;;;;;4972345;28;20489;-68
2022/07/22 04:16:30;;;;;;;35.17;32.97;;;19.20;84.30;;;;;;4965504;28;20609;-68
2022/07/22 04:18:57;;;;;;;33.00;31.10;;;19.20;84.10;;;;;;4968839;28;20559;-68
2022/07/22 04:21:24;;;;;;;34.57;32.17;;;19.30;84.00;;;;;;4971250;28;20924;-67
2022/07/22 04:23:51;;;;;;;33.67;31.57;;;19.40;83.80;;;;;;4970765;28;20855;-73
2022/07/22 04:26:18;;;;;;;33.27;31.17;;;19.40;83.30;;;;;;4969621;28;20543;-75
2022/07/22 04:28:45;;;;;;;37.20;34.90;;;19.50;83.10;;;;;;4966871;28;20568;-72
2022/07/22 04:31:13;;;;;;;35.20;32.67;;;19.50;82.90;;;;;;4968659;28;22425;-73
2022/07/22 04:33:41;;;;;;;37.60;35.40;;;19.50;82.90;;;;;;4970891;28;20542;-72
2022/07/22 04:36:08;;;;;;;33.83;31.50;;;19.60;82.70;;;;;;4978886;28;20846;-72
2022/07/22 04:38:35;;;;;;;34.30;32.20;;;19.60;82.80;;;;;;4970602;28;20520;-73
2022/07/22 04:41:03;;;;;;;35.20;33.00;;;19.60;82.60;;;;;;4968348;28;20463;-70
2022/07/22 04:43:30;;;;;;;37.53;35.13;;;19.60;82.40;;;;;;4969150;28;20811;-70
2022/07/22 04:45:57;;;;;;;35.60;33.20;;;19.80;82.00;;;;;;4969588;28;20541;-69
2022/07/22 04:48:25;;;;;;;35.20;33.10;;;19.90;81.90;;;;;;4966828;28;21001;-71
2022/07/22 04:50:52;;;;;;;35.93;33.33;;;20.00;81.70;;;;;;4968187;28;20551;-73
2022/07/22 04:53:19;;;;;;;33.67;31.57;;;20.10;81.40;;;;;;4964915;28;20551;-73
2022/07/22 04:55:46;;;;;;;33.90;31.90;;;20.20;81.10;;;;;;4965015;28;20572;-72
2022/07/22 04:58:13;;;;;;;34.17;32.07;;;20.30;80.70;;;;;;4969446;28;20989;-73
2022/07/22 05:00:40;;;;;;;35.70;33.40;;;20.50;80.20;;;;;;4969839;28;20465;-72
2022/07/22 05:03:07;;;;;;;36.40;34.20;;;20.60;79.70;;;;;;4966497;28;20458;-73
2022/07/22 05:05:36;;;;;;;35.70;33.07;;;20.70;79.40;;;;;;4965450;28;20951;-75
2022/07/22 05:08:04;;;;;;;34.33;32.03;;;20.80;79.10;;;;;;4969149;28;20551;-75
2022/07/22 05:10:31;;;;;;;34.70;32.50;;;20.90;78.60;;;;;;4970467;28;20533;-71
2022/07/22 05:12:58;;;;;;;35.67;33.37;;;20.90;78.50;;;;;;4968542;28;20541;-72
2022/07/22 05:15:25;;;;;;;34.43;32.20;;;20.90;78.50;;;;;;4966524;28;20561;-70
2022/07/22 05:17:52;;;;;;;33.30;31.10;;;20.90;78.50;;;;;;4964464;28;21056;-71
2022/07/22 05:20:19;;;;;;;36.70;34.27;;;20.90;78.80;;;;;;4966679;28;20655;-70
2022/07/22 05:22:48;;;;;;;39.13;36.03;;;20.80;78.80;;;;;;4962417;28;20556;-71
2022/07/22 05:25:14;;;;;;;39.20;36.43;;;20.90;79.00;;;;;;4965645;28;20553;-70
2022/07/22 05:27:51;;;;;;;37.27;34.87;;;21.10;78.30;;;;;;4968835;28;20528;-69
2022/07/22 05:30:18;;;;;;;36.50;34.10;;;21.30;77.70;;;;;;4969808;28;20880;-70
2022/07/22 05:32:45;;;;;;;36.13;33.93;;;21.40;77.30;;;;;;4967900;28;20469;-70
2022/07/22 05:35:12;;;;;;;40.60;37.93;;;21.40;77.10;;;;;;4966567;28;20474;-69
2022/07/22 05:37:39;;;;;;;37.17;34.67;;;21.30;77.40;;;;;;4969292;28;20509;-69
2022/07/22 05:40:09;;;;;;;40.53;37.83;;;21.40;77.20;;;;;;4971206;28;20513;-71
2022/07/22 05:42:36;;;;;;;38.77;36.10;;;21.50;76.90;;;;;;4965561;28;20501;-74
2022/07/22 05:45:03;;;;;;;40.73;37.70;;;21.50;76.50;;;;;;4964602;28;20571;-77
2022/07/22 05:47:30;;;;;;;37.13;34.73;;;21.30;77.10;;;;;;4967842;28;20550;-74
2022/07/22 05:49:58;;;;;;;38.57;35.70;;;21.30;77.50;;;;;;4969781;28;20521;-73
2022/07/22 05:52:25;;;;;;;38.73;36.17;;;21.20;77.80;;;;;;4969011;28;20521;-74
2022/07/22 05:54:52;;;;;;;40.80;38.00;;;21.20;78.00;;;;;;4966705;28;20969;-72
2022/07/22 05:57:20;;;;;;;39.00;36.00;;;21.20;78.00;;;;;;4968295;28;20480;-71
2022/07/22 05:59:47;;;;;;;37.90;35.50;;;21.30;77.60;;;;;;4967779;28;20486;-68
2022/07/22 06:02:14;;;;;;;39.23;36.60;;;21.50;77.40;;;;;;4967621;28;21012;-69
2022/07/22 06:04:41;;;;;;;43.00;40.17;;;21.70;76.80;;;;;;4968294;28;20924;-70
2022/07/22 06:07:08;;;;;;;41.30;38.70;;;21.60;76.60;;;;;;4965962;28;20548;-73
2022/07/22 06:09:35;;;;;;;40.23;37.80;;;21.80;76.40;;;;;;4958335;28;20496;-69
2022/07/22 06:12:02;;;;;;;40.77;38.13;;;21.80;76.10;;;;;;4966027;28;20546;-73
2022/07/22 06:14:30;;;;;;;38.40;35.90;;;21.80;76.00;;;;;;4969006;28;20467;-73
2022/07/22 06:16:57;;;;;;;39.80;37.00;;;21.90;75.70;;;;;;4968212;28;20574;-71
2022/07/22 06:19:24;;;;;;;45.77;42.77;;;22.00;75.90;;;;;;4969606;28;21340;-70
2022/07/22 06:21:52;;;;;;;42.70;39.90;;;22.10;75.60;;;;;;4964879;28;20556;-72
2022/07/22 06:24:19;;;;;;;46.83;44.43;;;22.30;74.90;;;;;;4967175;28;20461;-72
2022/07/22 06:26:46;;;;;;;43.80;41.40;;;22.30;74.70;;;;;;4967364;28;20489;-74
2022/07/22 06:29:13;;;;;;;45.37;42.97;;;22.40;74.60;;;;;;4959002;28;22666;-70
2022/07/22 06:31:41;;;;;;;53.87;50.90;;;22.60;73.80;;;;;;4960777;28;20466;-71
2022/07/22 06:34:08;;;;;;;45.03;42.53;;;22.60;73.70;;;;;;4963323;28;20528;-74
2022/07/22 06:36:35;;;;;;;46.53;44.07;;;22.70;73.40;;;;;;4963625;28;20567;-74
2022/07/22 06:39:03;;;;;;;48.43;45.60;;;22.70;73.20;;;;;;4967936;28;20490;-72
2022/07/22 06:41:32;;;;;;;58.57;55.20;;;22.70;73.10;;;;;;4968401;28;20466;-72
2022/07/22 06:44:00;;;;;;;46.83;43.80;;;22.80;72.30;;;;;;4968146;28;20472;-72
2022/07/22 06:46:27;;;;;;;66.30;62.60;;;22.90;72.40;;;;;;4966871;28;20911;-74
2022/07/22 06:48:55;;;;;;;53.23;50.10;;;22.90;72.50;;;;;;4969236;28;20859;-72
2022/07/22 06:51:22;;;;;;;68.40;64.83;;;23.00;72.10;;;;;;4968797;28;20569;-72
2022/07/22 06:53:49;;;;;;;51.97;49.23;;;23.00;71.90;;;;;;4968737;28;20459;-75
2022/07/22 06:56:16;;;;;;;62.70;59.50;;;23.00;71.70;;;;;;4969055;28;21218;-73
2022/07/22 06:58:43;;;;;;;63.87;60.27;;;23.10;71.90;;;;;;4966328;28;20841;-72
2022/07/22 07:01:10;;;;;;;47.40;44.87;;;23.10;71.60;;;;;;4969969;28;20490;-77
2022/07/22 07:03:37;;;;;;;63.87;60.30;;;23.30;71.30;;;;;;4964365;28;20550;-72
2022/07/22 07:06:08;;;;;;;55.83;52.83;;;23.40;71.00;;;;;;4965892;28;20955;-70
2022/07/22 07:08:35;;;;;;;55.77;52.77;;;23.60;70.30;;;;;;4968637;28;21044;-70
2022/07/22 07:11:02;;;;;;;60.20;56.87;;;23.40;70.40;;;;;;4971343;28;20553;-71
2022/07/22 07:13:30;;;;;;;45.80;43.10;;;23.50;70.30;;;;;;4965856;28;20458;-72
2022/07/22 07:15:57;;;;;;;58.60;55.50;;;23.50;70.30;;;;;;4964623;28;20470;-71
2022/07/22 07:18:24;;;;;;;64.90;61.50;;;23.70;69.80;;;;;;4964398;28;21120;-70
2022/07/22 07:20:51;;;;;;;48.47;45.87;;;23.80;69.60;;;;;;4972281;28;20463;-70
2022/07/22 07:23:19;;;;;;;63.37;59.97;;;23.70;69.60;;;;;;4960450;28;20473;-70
2022/07/22 07:25:46;;;;;;;61.37;58.10;;;23.50;70.30;;;;;;4967608;28;20458;-70
2022/07/22 07:28:17;;;;;;;49.20;46.60;;;23.50;70.50;;;;;;4973542;28;20466;-70
2022/07/22 07:30:43;;;;;;;53.97;50.97;;;23.50;70.50;;;;;;4971240;28;20470;-70
2022/07/22 07:33:11;;;;;;;60.53;56.83;;;23.60;69.90;;;;;;4968157;28;20498;-72
2022/07/22 07:35:38;;;;;;;55.27;52.13;;;23.50;70.40;;;;;;4969542;28;20979;-73
2022/07/22 07:38:08;;;;;;;48.93;46.00;;;23.60;70.40;;;;;;4968367;28;20546;-70
2022/07/22 07:40:36;;;;;;;48.07;45.07;;;23.80;70.00;;;;;;4968576;28;20451;-70
2022/07/22 07:43:03;;;;;;;45.80;43.30;;;23.70;69.90;;;;;;4968009;28;20480;-70
2022/07/22 07:45:31;;;;;;;50.77;47.97;;;23.70;70.30;;;;;;4964153;28;20498;-70
2022/07/22 07:47:58;;;;;;;58.70;55.10;;;23.70;70.00;;;;;;4968510;28;20616;-71
2022/07/22 07:50:26;;;;;;;54.53;51.53;;;23.90;69.70;;;;;;4967592;28;20529;-72
2022/07/22 07:52:52;;;;;;;44.20;41.70;;;23.90;69.50;;;;;;4969517;28;20490;-75
2022/07/22 07:55:20;;;;;;;44.23;41.43;;;24.10;69.00;;;;;;4972439;28;20591;-70
2022/07/22 07:57:49;;;;;;;42.23;39.80;;;24.10;68.90;;;;;;4973494;28;20479;-71
2022/07/22 08:00:18;;;;;;;51.27;48.23;;;24.20;69.00;;;;;;4967132;28;20570;-70
2022/07/22 08:02:45;;;;;;;62.70;58.50;;;24.30;68.90;;;;;;4963941;28;20469;-70
2022/07/22 08:05:12;;;;;;;48.87;46.23;;;24.50;68.10;;;;;;4963341;28;20495;-71
2022/07/22 08:07:41;;;;;;;52.33;49.47;;;24.60;67.70;;;;;;4970817;28;20467;-70
2022/07/22 08:10:09;;;;;;;56.43;53.33;;;24.60;67.70;;;;;;4967563;28;20562;-71
2022/07/22 08:12:37;;;;;;;50.53;47.60;;;24.50;68.30;;;;;;4965150;28;20555;-70
2022/07/22 08:15:06;;;;;;;59.87;56.57;;;24.60;67.90;;;;;;4970933;28;20795;-70
2022/07/22 08:17:34;;;;;;;48.33;45.63;;;24.60;67.90;;;;;;4963530;28;20487;-71
2022/07/22 08:20:01;;;;;;;65.87;62.37;;;24.80;67.60;;;;;;4966305;28;20591;-70
2022/07/22 08:22:28;;;;;;;48.07;45.33;;;24.80;67.30;;;;;;4962427;28;20464;-71
2022/07/22 08:24:55;;;;;;;62.57;59.10;;;24.90;67.20;;;;;;4965927;28;20471;-71
2022/07/22 08:27:22;;;;;;;49.23;46.63;;;25.00;67.00;;;;;;4967304;28;20900;-71
2022/07/22 08:29:48;;;;;;;69.33;65.70;;;25.20;66.50;;;;;;4961092;28;20562;-71
2022/07/22 08:32:17;;;;;;;52.17;49.27;;;25.20;66.40;;;;;;4963407;28;20465;-70
2022/07/22 08:34:44;;;;;;;49.57;46.73;;;25.20;66.60;;;;;;4965745;28;20552;-70
2022/07/22 08:37:11;;;;;;;56.53;53.33;;;25.30;66.10;;;;;;4969534;28;20486;-71
2022/07/22 08:39:38;;;;;;;57.93;54.80;;;25.40;66.00;;;;;;4966831;28;20595;-71
2022/07/22 08:42:05;;;;;;;47.10;44.40;;;25.50;65.90;;;;;;4968119;28;20483;-71
2022/07/22 08:44:33;;;;;;;50.67;47.90;;;25.70;65.50;;;;;;4966795;28;20462;-71
2022/07/22 08:47:00;;;;;;;59.97;56.73;;;25.70;65.00;;;;;;4968114;28;20557;-70
2022/07/22 08:49:29;;;;;;;59.57;56.33;;;25.90;64.80;;;;;;4967073;28;20567;-70
2022/07/22 08:51:56;;;;;;;50.03;47.03;;;25.80;64.60;;;;;;4966615;28;20903;-71
2022/07/22 08:54:23;;;;;;;53.40;50.57;;;25.90;64.40;;;;;;4967975;28;20544;-71
2022/07/22 08:56:51;;;;;;;61.80;58.10;;;26.00;63.70;;;;;;4965353;28;20652;-71
2022/07/22 08:59:19;;;;;;;58.47;55.03;;;25.90;64.00;;;;;;4967748;28;20500;-71
2022/07/22 09:02:05;;;;;;;47.30;44.80;;;26.00;63.80;;;;;;4962956;28;20557;-71
2022/07/22 09:04:50;;;;;;;54.17;51.00;;;26.10;63.30;;;;;;4969001;28;20546;-71
2022/07/22 09:07:27;;;;;;;60.60;57.27;;;26.10;63.70;;;;;;4965865;28;20459;-71
2022/07/22 09:09:54;;;;;;;51.13;48.23;;;26.10;63.40;;;;;;4964777;28;21086;-71
2022/07/22 09:12:22;;;;;;;57.77;54.40;;;26.10;63.20;;;;;;4971809;28;20544;-73
2022/07/22 09:14:50;;;;;;;55.17;51.87;;;26.00;63.60;;;;;;4968277;28;20456;-73
2022/07/22 09:17:29;;;;;;;75.10;71.43;;;26.10;63.40;;;;;;4964829;28;20481;-72
2022/07/22 09:19:58;;;;;;;55.07;51.87;;;26.00;63.30;;;;;;4966926;28;20596;-76
2022/07/22 09:22:45;;;;;;;62.80;58.80;;;26.00;63.30;;;;;;4964609;28;20468;-72
2022/07/22 09:25:21;;;;;;;48.47;45.77;;;26.00;63.50;;;;;;4969374;28;20493;-73
2022/07/22 09:27:49;;;;;;;51.97;49.07;;;26.20;63.30;;;;;;4969687;28;20868;-73
2022/07/22 09:30:17;;;;;;;51.00;48.10;;;26.30;62.80;;;;;;4969642;28;20928;-73
2022/07/22 09:32:45;;;;;;;53.50;50.50;;;26.40;62.90;;;;;;4968413;28;20994;-73
2022/07/22 09:35:14;;;;;;;50.47;47.57;;;26.50;62.40;;;;;;4966647;28;21006;-75
2022/07/22 09:37:49;;;;;;;49.67;46.67;;;26.50;62.10;;;;;;4960377;28;20486;-76
2022/07/22 09:40:25;;;;;;;60.87;57.33;;;26.70;62.10;;;;;;4964777;28;20485;-76
2022/07/22 09:42:54;;;;;;;55.17;52.07;;;26.80;61.40;;;;;;4971258;28;20485;-74
2022/07/22 09:45:23;;;;;;;62.67;58.93;;;26.80;61.60;;;;;;4970797;28;20553;-73
2022/07/22 09:47:51;;;;;;;58.13;54.93;;;26.80;61.30;;;;;;4969173;28;20545;-72
2022/07/22 09:50:21;;;;;;;76.43;72.83;;;27.00;60.70;;;;;;4966970;28;20606;-74
2022/07/22 09:52:50;;;;;;;63.50;59.97;;;27.00;60.50;;;;;;4969169;28;20562;-77
2022/07/22 09:55:19;;;;;;;48.17;45.27;;;27.10;60.60;;;;;;4968909;28;20530;-72
2022/07/22 09:57:47;;;;;;;62.50;59.17;;;27.10;60.50;;;;;;4969946;28;21237;-74
2022/07/22 10:00:16;;;;;;;46.60;44.10;;;27.10;60.60;;;;;;4966067;28;20489;-73
2022/07/22 10:02:47;;;;;;;66.80;63.47;;;27.30;59.90;;;;;;4968846;28;21062;-73
2022/07/22 10:05:16;;;;;;;58.93;55.87;;;27.30;59.40;;;;;;4969414;28;20566;-74
2022/07/22 10:07:46;;;;;;;57.40;54.40;;;27.40;59.10;;;;;;4968823;28;20467;-74
2022/07/22 10:10:15;;;;;;;49.00;46.20;;;27.50;59.20;;;;;;4965144;28;20998;-74
2022/07/22 10:12:43;;;;;;;46.47;43.97;;;27.50;58.80;;;;;;4965507;28;21035;-73
2022/07/22 10:15:11;;;;;;;50.20;47.30;;;27.70;58.60;;;;;;4965171;28;20542;-73
2022/07/22 10:17:41;;;;;;;69.30;65.87;;;27.70;58.30;;;;;;4965215;28;20569;-74
2022/07/22 10:20:10;;;;;;;72.43;68.63;;;27.70;58.30;;;;;;4961230;28;20570;-73
2022/07/22 10:22:58;;;;;;;54.50;51.30;;;27.70;58.20;;;;;;4965962;28;20961;-75
2022/07/22 10:25:27;;;;;;;46.83;44.27;;;27.60;58.90;;;;;;4968266;28;20506;-72
2022/07/22 10:27:57;;;;;;;50.50;47.80;;;27.60;58.60;;;;;;4963706;28;21279;-72
2022/07/22 10:30:26;;;;;;;49.83;46.80;;;27.80;58.70;;;;;;4965480;28;20482;-73
2022/07/22 10:33:04;;;;;;;68.80;65.23;;;27.90;58.60;;;;;;4964054;28;20458;-73
2022/07/22 10:35:32;;;;;;;66.77;63.03;;;27.90;58.20;;;;;;4962839;28;20455;-73
2022/07/22 10:38:04;;;;;;;67.23;63.03;;;28.00;58.00;;;;;;4963320;28;21350;-75
2022/07/22 10:40:32;;;;;;;74.10;66.63;;;27.90;58.40;;;;;;4964754;28;20459;-74
2022/07/22 10:43:21;;;;;;;68.30;64.00;;;28.10;58.80;;;;;;4962243;28;20554;-78
2022/07/22 10:45:51;;;;;;;62.80;58.77;;;28.40;58.50;;;;;;4959622;28;20550;-73
2022/07/22 10:48:21;;;;;;;73.37;69.70;;;28.40;58.40;;;;;;4961711;28;22841;-76
2022/07/22 10:51:05;;;;;;;65.33;61.43;;;28.60;57.40;;;;;;4959779;28;20621;-74
2022/07/22 10:53:46;;;;;;;51.80;49.10;;;28.70;57.40;;;;;;4960991;28;20965;-73
2022/07/22 10:56:16;;;;;;;52.30;49.57;;;28.80;56.90;;;;;;4964843;28;20494;-73
2022/07/22 10:58:52;;;;;;;51.80;48.73;;;28.90;56.80;;;;;;4966620;28;20562;-71
2022/07/22 11:01:23;;;;;;;51.57;48.70;;;29.10;56.50;;;;;;4969452;28;20458;-73
2022/07/22 11:03:51;;;;;;;71.20;67.73;;;29.10;56.30;;;;;;4961995;28;20510;-72
2022/07/22 11:06:21;;;;;;;61.23;58.03;;;29.10;55.70;;;;;;4966582;28;20474;-76
2022/07/22 11:08:53;;;;;;;57.77;54.73;;;29.20;55.50;;;;;;4965130;28;20562;-76
2022/07/22 11:11:31;;;;;;;75.40;71.63;;;29.30;55.60;;;;;;4963050;28;20570;-73
2022/07/22 11:13:58;;;;;;;58.77;55.50;;;29.30;55.70;;;;;;4958800;28;20463;-75
2022/07/22 11:16:27;;;;;;;56.57;53.37;;;29.30;55.30;;;;;;4959639;28;21285;-72
2022/07/22 11:18:56;;;;;;;55.97;53.00;;;29.30;55.20;;;;;;4958485;28;20489;-72
2022/07/22 11:21:24;;;;;;;66.27;62.97;;;29.40;54.60;;;;;;4964624;28;20884;-70
2022/07/22 11:23:55;;;;;;;47.67;44.97;;;29.50;54.30;;;;;;4953071;28;20456;-71
2022/07/22 11:26:27;;;;;;;51.67;48.83;;;29.60;54.00;;;;;;4967999;28;20891;-74
2022/07/22 11:28:54;;;;;;;52.27;49.40;;;29.70;53.60;;;;;;4962371;28;20569;-72
2022/07/22 11:31:21;;;;;;;83.70;80.40;;;29.90;52.60;;;;;;4960663;28;20459;-71
2022/07/22 11:33:48;;;;;;;63.40;60.17;;;30.00;52.30;;;;;;4967989;28;20554;-72
2022/07/22 11:36:15;;;;;;;46.53;43.77;;;30.10;51.70;;;;;;4965709;28;20470;-72
2022/07/22 11:38:48;;;;;;;49.10;46.30;;;30.20;50.50;;;;;;4965663;28;20567;-72
2022/07/22 11:41:18;;;;;;;59.50;56.53;;;30.30;50.40;;;;;;4970662;28;20549;-74
2022/07/22 11:43:47;;;;;;;63.60;60.30;;;30.40;49.10;;;;;;4969988;28;20455;-75
2022/07/22 11:46:15;;;;;;;63.83;60.43;;;30.50;49.10;;;;;;4969982;28;20893;-73
2022/07/22 11:48:43;;;;;;;60.70;56.90;;;30.60;49.80;;;;;;4963809;28;20569;-75
2022/07/22 11:51:11;;;;;;;63.03;59.83;;;30.70;50.20;;;;;;4968653;28;20471;-73
2022/07/22 11:53:39;;;;;;;65.50;62.33;;;30.70;50.40;;;;;;4969123;28;20522;-76
2022/07/22 11:56:08;;;;;;;48.43;45.43;;;30.80;49.70;;;;;;4970208;28;20463;-73
2022/07/22 11:58:42;;;;;;;52.00;49.07;;;30.80;50.40;;;;;;4971937;28;20561;-73
2022/07/22 12:01:11;;;;;;;50.57;47.60;;;30.80;49.80;;;;;;4964476;28;20470;-73
2022/07/22 12:03:40;;;;;;;60.83;57.70;;;30.90;49.80;;;;;;4962942;28;21059;-74
2022/07/22 12:06:10;;;;;;;49.17;46.67;;;30.90;50.10;;;;;;4970767;28;20571;-73
2022/07/22 12:08:42;;;;;;;44.53;41.93;;;30.90;49.60;;;;;;4968239;28;20533;-72
2022/07/22 12:11:11;;;;;;;60.00;56.90;;;31.00;49.20;;;;;;4956386;28;20458;-74
2022/07/22 12:13:44;;;;;;;52.40;49.63;;;31.10;49.50;;;;;;4969383;28;20873;-72
2022/07/22 12:16:23;;;;;;;53.17;50.17;;;31.20;47.50;;;;;;4967520;28;20471;-74
2022/07/22 12:19:01;;;;;;;56.17;53.00;;;31.30;47.00;;;;;;4967061;28;20582;-70
2022/07/22 12:21:30;;;;;;;59.03;56.00;;;31.30;47.80;;;;;;4962781;28;20861;-72
2022/07/22 12:24:02;;;;;;;43.93;41.67;;;31.40;47.90;;;;;;4961423;28;20469;-70
2022/07/22 12:26:44;;;;;;;44.73;42.43;;;31.40;46.70;;;;;;4968567;28;20542;-71
2022/07/22 12:29:45;;;;;;;58.43;55.33;;;31.40;47.20;;;;;;4965109;28;20502;-72
2022/07/22 12:32:18;;;;;;;70.57;67.53;;;31.40;48.00;;;;;;4960813;28;20573;-71
2022/07/22 12:34:48;;;;;;;42.93;40.83;;;31.60;47.60;;;;;;4960966;28;20459;-73